Forest Grove, Pennsylvania
Current Conditions -  °F | °C
As of 8:50 PM on Wednesday 26 Nov 2014 (Local Time) from KDYL Reporting Station
Overcast Overcast  
Wind Chill: 28°   Ceiling: 4100
Heat Index: 34°   Visibility: 9mi
Dew Point: 32°   Wind: 7mph
Humidity: 93%   Direction: 340°NNW
Pressure: 29.85"   Gusts: 18mph
Location:  40.29°N, 75.05°W
Report Text: KDYL 270150Z AUTO 34006G16KT 9SM SCT010 OVC041 01/00 A2985 RMK AO2 SNE46 P0003
Loading
Personal Weather Stations






























Interactive Weather Map New forecast layout! Learn more

10-Day Weather Forecast

Advertisements
Track Severe Weather on mobile